Trident — ZCYT9 — position and weather

sailwx.info

Track history (hours):
 
Tides and Currents Weather Stations Pressure Air Temp Water Temp Dewpoint Dewpoint Depression Visibility Wind Speed Wind Dir Waves Ship Positions

Trident

Last reported at 2018-Jul-21 18:55 UTC. Time now 2018-Jul-21 18:56 UTC.
Position N 37°24' E 025°13'.

Length 66 m; draft 3.4 m.

Type: Pleasure craft. MMSI: 319764000.

Date/timePositionNaut miles runAvg speedWind from/ knotsBaromVisibWave heightAir tempDewpointWater temp
2018-Jul-21 18:55N 37°24' E 025°13'0 0.0
2018-Jul-21 18:25N 37°24' E 025°13'0 0.0
2018-Jul-21 17:58N 37°24' E 025°13'0 0.1
2018-Jul-21 17:25N 37°24' E 025°13'0 0.0
2018-Jul-21 16:52N 37°24' E 025°13'0 0.0
2018-Jul-21 16:25N 37°24' E 025°13'0 0.0
2018-Jul-21 15:58N 37°24' E 025°13'0 0.1
2018-Jul-21 15:22N 37°24' E 025°13'0 0.1
2018-Jul-21 14:49N 37°24' E 025°13'0 0.0
2018-Jul-21 14:28N 37°24' E 025°13'0 0.0
2018-Jul-21 13:28N 37°24' E 025°13'0 0.0
2018-Jul-21 12:58N 37°24' E 025°13'0 0.0
2018-Jul-21 12:28N 37°24' E 025°13'0 0.0
2018-Jul-21 11:58N 37°24' E 025°13'0 0.0
2018-Jul-21 11:28N 37°24' E 025°13'0 0.0
2018-Jul-21 08:39N 37°24' E 025°13'0 0.1
2018-Jul-21 08:30N 37°24' E 025°13'0 0.0
2018-Jul-21 08:00N 37°24' E 025°13'0 0.0
2018-Jul-21 07:30N 37°24' E 025°13'0 0.1
2018-Jul-21 07:00N 37°24' E 025°13'0 0.0
2018-Jul-21 06:27N 37°24' E 025°13'0 0.0
2018-Jul-21 05:57N 37°24' E 025°13'0 0.0
2018-Jul-21 05:30N 37°24' E 025°13'0 0.0
2018-Jul-21 05:00N 37°24' E 025°13'0 0.0
2018-Jul-21 04:24N 37°24' E 025°13'0 0.0
2018-Jul-21 04:00N 37°24' E 025°13'0 0.1
2018-Jul-21 03:27N 37°24' E 025°13'0 0.0
2018-Jul-21 02:57N 37°24' E 025°13'0 0.0
2018-Jul-21 02:30N 37°24' E 025°13'0 0.1
2018-Jul-21 02:00N 37°24' E 025°13'0 0.0
2018-Jul-21 01:30N 37°24' E 025°13'0 0.0
2018-Jul-21 01:00N 37°24' E 025°13'0 0.0
2018-Jul-21 00:24N 37°24' E 025°13'0 0.8
2018-Jul-20 23:59N 37°24' E 025°13'3 6.3
2018-Jul-20 23:30N 37°27' E 025°13'5 9.1
2018-Jul-20 22:59N 37°27' E 025°19'0 0.0
2018-Jul-20 22:29N 37°27' E 025°19'0 0.0
2018-Jul-20 21:56N 37°27' E 025°19'0 0.0
2018-Jul-20 21:29N 37°27' E 025°19'0 0.0
2018-Jul-20 20:56N 37°27' E 025°19'0 0.1
2018-Jul-20 20:26N 37°27' E 025°19'1 2.9
2018-Jul-20 20:00N 37°27' E 025°18'611.0
2018-Jul-20 19:30N 37°25' E 025°12'2 0.2
2018-Jul-20 13:04N 37°24' E 025°13'0 0.0
2018-Jul-20 12:55N 37°24' E 025°13'0 0.1
2018-Jul-20 12:25N 37°24' E 025°13'0 0.1
2018-Jul-20 11:55N 37°24' E 025°13'0 0.1
2018-Jul-20 11:28N 37°24' E 025°13'0 0.0
2018-Jul-20 10:58N 37°24' E 025°13'0 0.1
2018-Jul-20 10:29N 37°24' E 025°13'0 0.1
2018-Jul-20 09:53N 37°24' E 025°13'0 0.0
2018-Jul-20 09:26N 37°24' E 025°13'0 0.0
2018-Jul-20 08:50N 37°24' E 025°13'0 0.0
2018-Jul-20 04:29N 37°24' E 025°13'0 0.0
2018-Jul-20 03:59N 37°24' E 025°13'1 1.8
2018-Jul-20 03:25N 37°24' E 025°12'1210.4
2018-Jul-20 02:16N 37°29' E 024°59'613.4
2018-Jul-20 01:49N 37°32' E 024°52'413.8
2018-Jul-20 01:30N 37°32' E 024°47'4512.0
2018-Jul-19 21:48N 37°42' E 023°52'412.8
2018-Jul-19 21:30N 37°45' E 023°49'3 3.8
2018-Jul-19 20:36N 37°48' E 023°47'0 0.0
2018-Jul-19 20:25N 37°48' E 023°47'0 0.0
2018-Jul-19 19:33N 37°48' E 023°47'0 0.2
2018-Jul-19 19:30N 37°48' E 023°47'0 0.0
2018-Jul-19 19:00N 37°48' E 023°47'0 0.0
2018-Jul-19 18:31N 37°48' E 023°47'0 0.0
2018-Jul-19 18:01N 37°48' E 023°47'0 0.1
2018-Jul-19 17:30N 37°48' E 023°47'0 0.5
2018-Jul-19 17:00N 37°48' E 023°47'0 0.0
2018-Jul-19 16:30N 37°48' E 023°47'0 0.0
2018-Jul-19 16:00N 37°48' E 023°47'0 0.0
2018-Jul-19 15:30N 37°48' E 023°47'0 0.0
2018-Jul-19 15:00N 37°48' E 023°47'0 0.0
2018-Jul-19 14:00N 37°48' E 023°47'0 0.0
2018-Jul-19 13:31N 37°48' E 023°47'0 0.0
2018-Jul-19 13:01N 37°48' E 023°47'0 0.1
2018-Jul-19 12:30N 37°48' E 023°47'0 0.0
2018-Jul-19 12:01N 37°48' E 023°47'0 0.1
2018-Jul-19 11:30N 37°48' E 023°47'0 0.0
2018-Jul-19 11:00N 37°48' E 023°47'0 0.0
2018-Jul-19 10:30N 37°48' E 023°47'0 0.0
2018-Jul-19 10:00N 37°48' E 023°47'0 0.0
2018-Jul-19 09:30N 37°48' E 023°47'0 0.0
2018-Jul-19 09:00N 37°48' E 023°47'0 0.0
2018-Jul-19 08:30N 37°48' E 023°47'0 0.0
2018-Jul-19 08:01N 37°48' E 023°47'0 0.0
2018-Jul-19 07:30N 37°48' E 023°47'0 0.0
2018-Jul-19 07:00N 37°48' E 023°47'0 0.0
2018-Jul-19 06:30N 37°48' E 023°47'0 0.0
2018-Jul-19 05:59N 37°48' E 023°47'0 0.0
2018-Jul-19 05:25N 37°48' E 023°47'0 0.0
2018-Jul-19 04:21N 37°48' E 023°47'0 0.0
2018-Jul-19 03:52N 37°48' E 023°47'0 0.1
2018-Jul-19 03:30N 37°48' E 023°47'0 0.0
2018-Jul-19 03:00N 37°48' E 023°47'0 0.0
2018-Jul-19 02:18N 37°48' E 023°47'0 0.0
2018-Jul-19 01:35N 37°48' E 023°47'0 0.0
2018-Jul-19 00:46N 37°48' E 023°47'0 0.0
2018-Jul-19 00:20N 37°48' E 023°47'0 0.0
2018-Jul-18 23:57N 37°48' E 023°47'0 0.0
2018-Jul-18 22:55N 37°48' E 023°47'0 0.0
2018-Jul-18 22:27N 37°48' E 023°47'0 0.0
2018-Jul-18 21:59N 37°48' E 023°47'0 0.0
2018-Jul-18 21:30N 37°48' E 023°47'0 0.0
2018-Jul-18 21:00N 37°48' E 023°47'0 0.0
2018-Jul-18 20:29N 37°48' E 023°47'0 0.0
2018-Jul-18 20:00N 37°48' E 023°47'0 0.0
2018-Jul-18 19:26N 37°48' E 023°47'0 0.0
2018-Jul-18 18:59N 37°48' E 023°47'0 0.0
2018-Jul-18 18:30N 37°48' E 023°47'0 0.0
2018-Jul-18 18:01N 37°48' E 023°47'0 0.1
2018-Jul-18 17:30N 37°48' E 023°47'0 0.0
2018-Jul-18 17:01N 37°48' E 023°47'0 0.0
2018-Jul-18 16:31N 37°48' E 023°47'0 0.0
2018-Jul-18 16:00N 37°48' E 023°47'0 0.0
2018-Jul-18 15:24N 37°48' E 023°47'0 0.1
2018-Jul-18 15:01N 37°48' E 023°47'0 0.0
2018-Jul-18 14:28N 37°48' E 023°47'0 0.0
2018-Jul-18 13:29N 37°48' E 023°47'0 0.0
2018-Jul-18 13:00N 37°48' E 023°47'0 0.1
2018-Jul-18 12:28N 37°48' E 023°47'0 0.0
2018-Jul-18 12:00N 37°48' E 023°47'0 0.0
2018-Jul-18 11:30N 37°48' E 023°47'0 0.0
2018-Jul-18 10:22N 37°48' E 023°47'0 0.0
2018-Jul-18 10:00N 37°48' E 023°47'0 0.0
2018-Jul-18 09:23N 37°48' E 023°47'0 0.0
2018-Jul-18 08:58N 37°48' E 023°47'0 0.0
2018-Jul-18 08:23N 37°48' E 023°47'0 0.0
2018-Jul-18 07:58N 37°48' E 023°47'0 0.0
2018-Jul-18 07:25N 37°48' E 023°47'0 0.0
2018-Jul-18 06:49N 37°48' E 023°47'0 0.0
2018-Jul-18 06:18N 37°48' E 023°47'0 0.0
2018-Jul-18 05:51N 37°48' E 023°47'0 0.0
2018-Jul-18 05:21N 37°48' E 023°47'0 0.0
2018-Jul-18 04:48N 37°48' E 023°47'0 0.0
2018-Jul-18 04:27N 37°48' E 023°47'0 0.1
2018-Jul-18 04:00N 37°48' E 023°47'0 0.0
2018-Jul-18 03:30N 37°48' E 023°47'0 0.0
2018-Jul-18 02:56N 37°48' E 023°47'0 0.0
2018-Jul-18 02:24N 37°48' E 023°47'0 0.1
2018-Jul-18 02:00N 37°48' E 023°47'0 0.0
2018-Jul-18 01:30N 37°48' E 023°47'0 0.0
2018-Jul-18 01:00N 37°48' E 023°47'0 0.1
2018-Jul-18 00:30N 37°48' E 023°47'0 0.0
2018-Jul-17 23:58N 37°48' E 023°47'0 0.0
2018-Jul-17 23:28N 37°48' E 023°47'0 0.0
2018-Jul-17 22:52N 37°48' E 023°47'0 0.0
2018-Jul-17 22:23N 37°48' E 023°47'0 0.0
2018-Jul-17 22:00N 37°48' E 023°47'0 0.0
2018-Jul-17 21:26N 37°48' E 023°47'0 0.0
2018-Jul-17 21:00N 37°48' E 023°47'0 0.1
2018-Jul-17 20:30N 37°48' E 023°47'0 0.1
2018-Jul-17 19:54N 37°48' E 023°47'0 0.1
2018-Jul-17 19:25N 37°48' E 023°47'0 0.1
2018-Jul-17 18:56N 37°48' E 023°47'0 0.0
2018-Jul-17 18:27N 37°48' E 023°47'0 0.0
2018-Jul-17 17:49N 37°48' E 023°47'0 0.0
2018-Jul-17 17:30N 37°48' E 023°47'0 0.0
2018-Jul-17 17:00N 37°48' E 023°47'0 0.0
2018-Jul-17 16:30N 37°48' E 023°47'0 0.0
2018-Jul-17 15:59N 37°48' E 023°47'0 0.0
2018-Jul-17 15:30N 37°48' E 023°47'0 0.0
2018-Jul-17 15:00N 37°48' E 023°47'0 0.0
2018-Jul-17 14:30N 37°48' E 023°47'0 0.0
2018-Jul-17 13:58N 37°48' E 023°47'0 0.0
2018-Jul-17 13:30N 37°48' E 023°47'0 0.0
2018-Jul-17 13:00N 37°48' E 023°47'0 0.0
2018-Jul-17 12:30N 37°48' E 023°47'0 0.0
2018-Jul-17 12:00N 37°48' E 023°47'0 0.0
2018-Jul-17 11:30N 37°48' E 023°47'0 0.2
2018-Jul-17 11:00N 37°48' E 023°47'1 2.1
2018-Jul-17 10:30N 37°49' E 023°46'0 0.0
2018-Jul-17 10:00N 37°49' E 023°46'0 0.0
2018-Jul-17 09:30N 37°49' E 023°46'0 0.0
2018-Jul-17 09:00N 37°49' E 023°46'0 0.0
2018-Jul-17 08:29N 37°49' E 023°46'0 0.0
2018-Jul-17 08:00N 37°49' E 023°46'0 0.0
2018-Jul-17 07:28N 37°49' E 023°46'0 0.0
2018-Jul-17 07:00N 37°49' E 023°46'0 0.0
2018-Jul-17 06:30N 37°49' E 023°46'0 0.0
2018-Jul-17 05:56N 37°49' E 023°46'0 0.0
2018-Jul-17 04:09N 37°49' E 023°46'0 0.0
2018-Jul-17 02:27N 37°49' E 023°46'0 0.0
2018-Jul-17 01:58N 37°49' E 023°46'0 0.0
2018-Jul-17 01:21N 37°49' E 023°46'0 0.0
2018-Jul-17 01:00N 37°49' E 023°46'0 0.0
2018-Jul-17 00:28N 37°49' E 023°46'0 0.0
2018-Jul-16 23:29N 37°49' E 023°46'0 0.0
2018-Jul-16 23:00N 37°49' E 023°46'0 0.0
2018-Jul-16 22:30N 37°49' E 023°46'0 0.0
2018-Jul-16 22:00N 37°49' E 023°46'0 0.0
2018-Jul-16 21:30N 37°49' E 023°46'0 0.0
2018-Jul-16 21:00N 37°49' E 023°46'0 0.0
2018-Jul-16 20:30N 37°49' E 023°46'0 0.0
2018-Jul-16 20:00N 37°49' E 023°46'0 0.0
2018-Jul-16 19:30N 37°49' E 023°46'0 0.0
2018-Jul-16 19:00N 37°49' E 023°46'0 0.0
2018-Jul-16 18:30N 37°49' E 023°46'0 0.0
2018-Jul-16 18:00N 37°49' E 023°46'0 0.0
2018-Jul-16 17:30N 37°49' E 023°46'0 0.0
2018-Jul-16 17:00N 37°49' E 023°46'0 0.0
2018-Jul-16 16:30N 37°49' E 023°46'0 0.0
2018-Jul-16 16:00N 37°49' E 023°46'1 1.6
2018-Jul-16 15:30N 37°49' E 023°45'611.7
2018-Jul-16 15:00N 37°54' E 023°42'1 2.6
2018-Jul-16 14:30N 37°55' E 023°41'0 0.0
2018-Jul-16 14:01N 37°55' E 023°41'0 0.1
2018-Jul-16 13:31N 37°55' E 023°41'0 0.1
2018-Jul-16 13:00N 37°55' E 023°41'0 0.1
2018-Jul-16 12:31N 37°55' E 023°41'0 0.0
2018-Jul-16 12:01N 37°55' E 023°41'0 0.0
2018-Jul-16 11:30N 37°55' E 023°41'0 0.1
2018-Jul-16 11:00N 37°55' E 023°41'0 0.0
2018-Jul-16 10:31N 37°55' E 023°41'0 0.0
2018-Jul-16 10:01N 37°55' E 023°41'0 0.0
2018-Jul-16 09:30N 37°55' E 023°41'0 0.0
2018-Jul-16 09:00N 37°55' E 023°41'0 0.0
2018-Jul-16 08:30N 37°55' E 023°41'0 0.0
2018-Jul-16 08:00N 37°55' E 023°41'0 0.0
2018-Jul-16 07:29N 37°55' E 023°41'0 0.0
2018-Jul-16 07:00N 37°55' E 023°41'1 1.8
2018-Jul-16 06:30N 37°55' E 023°40'713.2
2018-Jul-16 06:00N 37°48' E 023°42'  
2018-Jul-12 05:29N 37°39' E 024°52'1714.0
2018-Jul-12 04:16N 37°26' E 025°06'313.8
2018-Jul-12 04:00N 37°23' E 025°08'713.6
2018-Jul-12 03:30N 37°19' E 025°15'714.6
2018-Jul-12 03:00N 37°17' E 025°24'1314.2
2018-Jul-12 02:07N 37°13' E 025°39'214.4
2018-Jul-12 02:00N 37°13' E 025°41'  
Track history (hours):
 
Tides and Currents Weather Stations Pressure Air Temp Water Temp Dewpoint Dewpoint Depression Visibility Wind Speed Wind Dir Waves Ship Positions

Trident

Last reported at 2018-Jul-21 18:55 UTC. Time now 2018-Jul-21 18:56 UTC.
Position N 37°24' E 025°13'.

Length 66 m; draft 3.4 m.

Type: Pleasure craft. MMSI: 319764000.

Date/timePositionNaut miles runAvg speedWind from/ knotsBaromVisibWave heightAir tempDewpointWater temp
2018-Jul-21 18:55N 37°24' E 025°13'0 0.0
2018-Jul-21 18:25N 37°24' E 025°13'0 0.0
2018-Jul-21 17:58N 37°24' E 025°13'0 0.1
2018-Jul-21 17:25N 37°24' E 025°13'0 0.0
2018-Jul-21 16:52N 37°24' E 025°13'0 0.0
2018-Jul-21 16:25N 37°24' E 025°13'0 0.0
2018-Jul-21 15:58N 37°24' E 025°13'0 0.1
2018-Jul-21 15:22N 37°24' E 025°13'0 0.1
2018-Jul-21 14:49N 37°24' E 025°13'0 0.0
2018-Jul-21 14:28N 37°24' E 025°13'0 0.0
2018-Jul-21 13:28N 37°24' E 025°13'0 0.0
2018-Jul-21 12:58N 37°24' E 025°13'0 0.0
2018-Jul-21 12:28N 37°24' E 025°13'0 0.0
2018-Jul-21 11:58N 37°24' E 025°13'0 0.0
2018-Jul-21 11:28N 37°24' E 025°13'0 0.0
2018-Jul-21 08:39N 37°24' E 025°13'0 0.1
2018-Jul-21 08:30N 37°24' E 025°13'0 0.0
2018-Jul-21 08:00N 37°24' E 025°13'0 0.0
2018-Jul-21 07:30N 37°24' E 025°13'0 0.1
2018-Jul-21 07:00N 37°24' E 025°13'0 0.0
2018-Jul-21 06:27N 37°24' E 025°13'0 0.0
2018-Jul-21 05:57N 37°24' E 025°13'0 0.0
2018-Jul-21 05:30N 37°24' E 025°13'0 0.0
2018-Jul-21 05:00N 37°24' E 025°13'0 0.0
2018-Jul-21 04:24N 37°24' E 025°13'0 0.0
2018-Jul-21 04:00N 37°24' E 025°13'0 0.1
2018-Jul-21 03:27N 37°24' E 025°13'0 0.0
2018-Jul-21 02:57N 37°24' E 025°13'0 0.0
2018-Jul-21 02:30N 37°24' E 025°13'0 0.1
2018-Jul-21 02:00N 37°24' E 025°13'0 0.0
2018-Jul-21 01:30N 37°24' E 025°13'0 0.0
2018-Jul-21 01:00N 37°24' E 025°13'0 0.0
2018-Jul-21 00:24N 37°24' E 025°13'0 0.8
2018-Jul-20 23:59N 37°24' E 025°13'3 6.3
2018-Jul-20 23:30N 37°27' E 025°13'5 9.1
2018-Jul-20 22:59N 37°27' E 025°19'0 0.0
2018-Jul-20 22:29N 37°27' E 025°19'0 0.0
2018-Jul-20 21:56N 37°27' E 025°19'0 0.0
2018-Jul-20 21:29N 37°27' E 025°19'0 0.0
2018-Jul-20 20:56N 37°27' E 025°19'0 0.1
2018-Jul-20 20:26N 37°27' E 025°19'1 2.9
2018-Jul-20 20:00N 37°27' E 025°18'611.0
2018-Jul-20 19:30N 37°25' E 025°12'2 0.2
2018-Jul-20 13:04N 37°24' E 025°13'0 0.0
2018-Jul-20 12:55N 37°24' E 025°13'0 0.1
2018-Jul-20 12:25N 37°24' E 025°13'0 0.1
2018-Jul-20 11:55N 37°24' E 025°13'0 0.1
2018-Jul-20 11:28N 37°24' E 025°13'0 0.0
2018-Jul-20 10:58N 37°24' E 025°13'0 0.1
2018-Jul-20 10:29N 37°24' E 025°13'0 0.1
2018-Jul-20 09:53N 37°24' E 025°13'0 0.0
2018-Jul-20 09:26N 37°24' E 025°13'0 0.0
2018-Jul-20 08:50N 37°24' E 025°13'0 0.0
2018-Jul-20 04:29N 37°24' E 025°13'0 0.0
2018-Jul-20 03:59N 37°24' E 025°13'1 1.8
2018-Jul-20 03:25N 37°24' E 025°12'1210.4
2018-Jul-20 02:16N 37°29' E 024°59'613.4
2018-Jul-20 01:49N 37°32' E 024°52'413.8
2018-Jul-20 01:30N 37°32' E 024°47'4512.0
2018-Jul-19 21:48N 37°42' E 023°52'412.8
2018-Jul-19 21:30N 37°45' E 023°49'3 3.8
2018-Jul-19 20:36N 37°48' E 023°47'0 0.0
2018-Jul-19 20:25N 37°48' E 023°47'0 0.0
2018-Jul-19 19:33N 37°48' E 023°47'0 0.2
2018-Jul-19 19:30N 37°48' E 023°47'0 0.0
2018-Jul-19 19:00N 37°48' E 023°47'0 0.0
2018-Jul-19 18:31N 37°48' E 023°47'0 0.0
2018-Jul-19 18:01N 37°48' E 023°47'0 0.1
2018-Jul-19 17:30N 37°48' E 023°47'0 0.5
2018-Jul-19 17:00N 37°48' E 023°47'0 0.0
2018-Jul-19 16:30N 37°48' E 023°47'0 0.0
2018-Jul-19 16:00N 37°48' E 023°47'0 0.0
2018-Jul-19 15:30N 37°48' E 023°47'0 0.0
2018-Jul-19 15:00N 37°48' E 023°47'0 0.0
2018-Jul-19 14:00N 37°48' E 023°47'0 0.0
2018-Jul-19 13:31N 37°48' E 023°47'0 0.0
2018-Jul-19 13:01N 37°48' E 023°47'0 0.1
2018-Jul-19 12:30N 37°48' E 023°47'0 0.0
2018-Jul-19 12:01N 37°48' E 023°47'0 0.1
2018-Jul-19 11:30N 37°48' E 023°47'0 0.0
2018-Jul-19 11:00N 37°48' E 023°47'0 0.0
2018-Jul-19 10:30N 37°48' E 023°47'0 0.0
2018-Jul-19 10:00N 37°48' E 023°47'0 0.0
2018-Jul-19 09:30N 37°48' E 023°47'0 0.0
2018-Jul-19 09:00N 37°48' E 023°47'0 0.0
2018-Jul-19 08:30N 37°48' E 023°47'0 0.0
2018-Jul-19 08:01N 37°48' E 023°47'0 0.0
2018-Jul-19 07:30N 37°48' E 023°47'0 0.0
2018-Jul-19 07:00N 37°48' E 023°47'0 0.0
2018-Jul-19 06:30N 37°48' E 023°47'0 0.0
2018-Jul-19 05:59N 37°48' E 023°47'0 0.0
2018-Jul-19 05:25N 37°48' E 023°47'0 0.0
2018-Jul-19 04:21N 37°48' E 023°47'0 0.0
2018-Jul-19 03:52N 37°48' E 023°47'0 0.1
2018-Jul-19 03:30N 37°48' E 023°47'0 0.0
2018-Jul-19 03:00N 37°48' E 023°47'0 0.0
2018-Jul-19 02:18N 37°48' E 023°47'0 0.0
2018-Jul-19 01:35N 37°48' E 023°47'0 0.0
2018-Jul-19 00:46N 37°48' E 023°47'0 0.0
2018-Jul-19 00:20N 37°48' E 023°47'0 0.0
2018-Jul-18 23:57N 37°48' E 023°47'0 0.0
2018-Jul-18 22:55N 37°48' E 023°47'0 0.0
2018-Jul-18 22:27N 37°48' E 023°47'0 0.0
2018-Jul-18 21:59N 37°48' E 023°47'0 0.0
2018-Jul-18 21:30N 37°48' E 023°47'0 0.0
2018-Jul-18 21:00N 37°48' E 023°47'0 0.0
2018-Jul-18 20:29N 37°48' E 023°47'0 0.0
2018-Jul-18 20:00N 37°48' E 023°47'0 0.0
2018-Jul-18 19:26N 37°48' E 023°47'0 0.0
2018-Jul-18 18:59N 37°48' E 023°47'0 0.0
2018-Jul-18 18:30N 37°48' E 023°47'0 0.0
2018-Jul-18 18:01N 37°48' E 023°47'0 0.1
2018-Jul-18 17:30N 37°48' E 023°47'0 0.0
2018-Jul-18 17:01N 37°48' E 023°47'0 0.0
2018-Jul-18 16:31N 37°48' E 023°47'0 0.0
2018-Jul-18 16:00N 37°48' E 023°47'0 0.0
2018-Jul-18 15:24N 37°48' E 023°47'0 0.1
2018-Jul-18 15:01N 37°48' E 023°47'0 0.0
2018-Jul-18 14:28N 37°48' E 023°47'0 0.0
2018-Jul-18 13:29N 37°48' E 023°47'0 0.0
2018-Jul-18 13:00N 37°48' E 023°47'0 0.1
2018-Jul-18 12:28N 37°48' E 023°47'0 0.0
2018-Jul-18 12:00N 37°48' E 023°47'0 0.0
2018-Jul-18 11:30N 37°48' E 023°47'0 0.0
2018-Jul-18 10:22N 37°48' E 023°47'0 0.0
2018-Jul-18 10:00N 37°48' E 023°47'0 0.0
2018-Jul-18 09:23N 37°48' E 023°47'0 0.0
2018-Jul-18 08:58N 37°48' E 023°47'0 0.0
2018-Jul-18 08:23N 37°48' E 023°47'0 0.0
2018-Jul-18 07:58N 37°48' E 023°47'0 0.0
2018-Jul-18 07:25N 37°48' E 023°47'0 0.0
2018-Jul-18 06:49N 37°48' E 023°47'0 0.0
2018-Jul-18 06:18N 37°48' E 023°47'0 0.0
2018-Jul-18 05:51N 37°48' E 023°47'0 0.0
2018-Jul-18 05:21N 37°48' E 023°47'0 0.0
2018-Jul-18 04:48N 37°48' E 023°47'0 0.0
2018-Jul-18 04:27N 37°48' E 023°47'0 0.1
2018-Jul-18 04:00N 37°48' E 023°47'0 0.0
2018-Jul-18 03:30N 37°48' E 023°47'0 0.0
2018-Jul-18 02:56N 37°48' E 023°47'0 0.0
2018-Jul-18 02:24N 37°48' E 023°47'0 0.1
2018-Jul-18 02:00N 37°48' E 023°47'0 0.0
2018-Jul-18 01:30N 37°48' E 023°47'0 0.0
2018-Jul-18 01:00N 37°48' E 023°47'0 0.1
2018-Jul-18 00:30N 37°48' E 023°47'0 0.0
2018-Jul-17 23:58N 37°48' E 023°47'0 0.0
2018-Jul-17 23:28N 37°48' E 023°47'0 0.0
2018-Jul-17 22:52N 37°48' E 023°47'0 0.0
2018-Jul-17 22:23N 37°48' E 023°47'0 0.0
2018-Jul-17 22:00N 37°48' E 023°47'0 0.0
2018-Jul-17 21:26N 37°48' E 023°47'0 0.0
2018-Jul-17 21:00N 37°48' E 023°47'0 0.1
2018-Jul-17 20:30N 37°48' E 023°47'0 0.1
2018-Jul-17 19:54N 37°48' E 023°47'0 0.1
2018-Jul-17 19:25N 37°48' E 023°47'0 0.1
2018-Jul-17 18:56N 37°48' E 023°47'0 0.0
2018-Jul-17 18:27N 37°48' E 023°47'0 0.0
2018-Jul-17 17:49N 37°48' E 023°47'0 0.0
2018-Jul-17 17:30N 37°48' E 023°47'0 0.0
2018-Jul-17 17:00N 37°48' E 023°47'0 0.0
2018-Jul-17 16:30N 37°48' E 023°47'0 0.0
2018-Jul-17 15:59N 37°48' E 023°47'0 0.0
2018-Jul-17 15:30N 37°48' E 023°47'0 0.0
2018-Jul-17 15:00N 37°48' E 023°47'0 0.0
2018-Jul-17 14:30N 37°48' E 023°47'0 0.0
2018-Jul-17 13:58N 37°48' E 023°47'0 0.0
2018-Jul-17 13:30N 37°48' E 023°47'0 0.0
2018-Jul-17 13:00N 37°48' E 023°47'0 0.0
2018-Jul-17 12:30N 37°48' E 023°47'0 0.0
2018-Jul-17 12:00N 37°48' E 023°47'0 0.0
2018-Jul-17 11:30N 37°48' E 023°47'0 0.2
2018-Jul-17 11:00N 37°48' E 023°47'1 2.1
2018-Jul-17 10:30N 37°49' E 023°46'0 0.0
2018-Jul-17 10:00N 37°49' E 023°46'0 0.0
2018-Jul-17 09:30N 37°49' E 023°46'0 0.0
2018-Jul-17 09:00N 37°49' E 023°46'0 0.0
2018-Jul-17 08:29N 37°49' E 023°46'0 0.0
2018-Jul-17 08:00N 37°49' E 023°46'0 0.0
2018-Jul-17 07:28N 37°49' E 023°46'0 0.0
2018-Jul-17 07:00N 37°49' E 023°46'0 0.0
2018-Jul-17 06:30N 37°49' E 023°46'0 0.0
2018-Jul-17 05:56N 37°49' E 023°46'0 0.0
2018-Jul-17 04:09N 37°49' E 023°46'0 0.0
2018-Jul-17 02:27N 37°49' E 023°46'0 0.0
2018-Jul-17 01:58N 37°49' E 023°46'0 0.0
2018-Jul-17 01:21N 37°49' E 023°46'0 0.0
2018-Jul-17 01:00N 37°49' E 023°46'0 0.0
2018-Jul-17 00:28N 37°49' E 023°46'0 0.0
2018-Jul-16 23:29N 37°49' E 023°46'0 0.0
2018-Jul-16 23:00N 37°49' E 023°46'0 0.0
2018-Jul-16 22:30N 37°49' E 023°46'0 0.0
2018-Jul-16 22:00N 37°49' E 023°46'0 0.0
2018-Jul-16 21:30N 37°49' E 023°46'0 0.0
2018-Jul-16 21:00N 37°49' E 023°46'0 0.0
2018-Jul-16 20:30N 37°49' E 023°46'0 0.0
2018-Jul-16 20:00N 37°49' E 023°46'0 0.0
2018-Jul-16 19:30N 37°49' E 023°46'0 0.0
2018-Jul-16 19:00N 37°49' E 023°46'0 0.0
2018-Jul-16 18:30N 37°49' E 023°46'0 0.0
2018-Jul-16 18:00N 37°49' E 023°46'0 0.0
2018-Jul-16 17:30N 37°49' E 023°46'0 0.0
2018-Jul-16 17:00N 37°49' E 023°46'0 0.0
2018-Jul-16 16:30N 37°49' E 023°46'0 0.0
2018-Jul-16 16:00N 37°49' E 023°46'1 1.6
2018-Jul-16 15:30N 37°49' E 023°45'611.7
2018-Jul-16 15:00N 37°54' E 023°42'1 2.6
2018-Jul-16 14:30N 37°55' E 023°41'0 0.0
2018-Jul-16 14:01N 37°55' E 023°41'0 0.1
2018-Jul-16 13:31N 37°55' E 023°41'0 0.1
2018-Jul-16 13:00N 37°55' E 023°41'0 0.1
2018-Jul-16 12:31N 37°55' E 023°41'0 0.0
2018-Jul-16 12:01N 37°55' E 023°41'0 0.0
2018-Jul-16 11:30N 37°55' E 023°41'0 0.1
2018-Jul-16 11:00N 37°55' E 023°41'0 0.0
2018-Jul-16 10:31N 37°55' E 023°41'0 0.0
2018-Jul-16 10:01N 37°55' E 023°41'0 0.0
2018-Jul-16 09:30N 37°55' E 023°41'0 0.0
2018-Jul-16 09:00N 37°55' E 023°41'0 0.0
2018-Jul-16 08:30N 37°55' E 023°41'0 0.0
2018-Jul-16 08:00N 37°55' E 023°41'0 0.0
2018-Jul-16 07:29N 37°55' E 023°41'0 0.0
2018-Jul-16 07:00N 37°55' E 023°41'1 1.8
2018-Jul-16 06:30N 37°55' E 023°40'713.2
2018-Jul-16 06:00N 37°48' E 023°42'  
2018-Jul-12 05:29N 37°39' E 024°52'1714.0
2018-Jul-12 04:16N 37°26' E 025°06'313.8
2018-Jul-12 04:00N 37°23' E 025°08'713.6
2018-Jul-12 03:30N 37°19' E 025°15'714.6
2018-Jul-12 03:00N 37°17' E 025°24'1314.2
2018-Jul-12 02:07N 37°13' E 025°39'214.4
2018-Jul-12 02:00N 37°13' E 025°41'  

Dump ship's entire track history